createdAt,value
2022-11-09T00:00:47.978Z,1.87
2022-11-09T00:05:57.747Z,2.10
2022-11-09T00:11:06.607Z,1.83
2022-11-09T00:16:11.522Z,2.53
2022-11-09T00:21:16.474Z,2.10
2022-11-09T00:26:22.083Z,1.80
2022-11-09T00:31:26.245Z,2.50
2022-11-09T00:36:30.888Z,2.13
2022-11-09T00:41:35.297Z,2.30
2022-11-09T00:46:38.335Z,2.60
2022-11-09T00:51:41.546Z,2.40
2022-11-09T00:56:46.343Z,2.03
2022-11-09T01:01:49.891Z,2.50
2022-11-09T01:06:54.669Z,1.90
2022-11-09T01:12:00.290Z,2.50
2022-11-09T01:17:03.498Z,2.37
2022-11-09T01:22:06.893Z,1.90
2022-11-09T01:27:11.497Z,1.97
2022-11-09T01:32:14.575Z,2.13
2022-11-09T01:37:17.524Z,2.10
2022-11-09T01:42:25.824Z,2.60
2022-11-09T01:47:28.939Z,2.00
2022-11-09T01:52:37.475Z,2.07
2022-11-09T01:57:51.359Z,1.80
2022-11-09T02:02:58.328Z,2.20
2022-11-09T02:08:03.981Z,2.30
2022-11-09T02:13:09.620Z,1.70
2022-11-09T02:18:14.260Z,1.70
2022-11-09T02:23:20.007Z,1.83
2022-11-09T02:28:24.101Z,1.80
2022-11-09T02:33:27.442Z,1.90
2022-11-09T02:38:33.208Z,2.30
2022-11-09T02:43:37.934Z,1.67
2022-11-09T02:48:41.360Z,2.47
2022-11-09T02:53:45.791Z,1.60
2022-11-09T02:58:48.923Z,1.67
2022-11-09T03:03:53.274Z,1.63
2022-11-09T03:08:57.802Z,2.33
2022-11-09T03:14:01.173Z,1.90
2022-11-09T03:19:04.852Z,1.80
2022-11-09T03:24:10.612Z,1.53
2022-11-09T03:29:15.766Z,2.10
2022-11-09T03:34:19.130Z,1.90
2022-11-09T03:39:23.877Z,1.73
2022-11-09T03:44:27.037Z,1.63
2022-11-09T03:49:30.499Z,1.77
2022-11-09T03:54:35.100Z,2.83
2022-11-09T03:59:38.992Z,2.43
2022-11-09T04:04:42.052Z,1.50
2022-11-09T04:09:46.422Z,1.73
2022-11-09T04:14:49.535Z,2.00
2022-11-09T04:19:52.664Z,2.17
2022-11-09T04:24:57.400Z,2.03
2022-11-09T04:30:00.479Z,1.80
2022-11-09T04:35:04.255Z,1.63
2022-11-09T04:40:10.313Z,2.00
2022-11-09T04:45:13.330Z,2.20
2022-11-09T04:50:16.913Z,1.60
2022-11-09T04:55:21.547Z,2.10
2022-11-09T05:00:24.579Z,2.03
2022-11-09T05:05:27.872Z,2.57
2022-11-09T05:10:33.304Z,1.90
2022-11-09T05:15:37.794Z,1.90
2022-11-09T05:20:41.087Z,2.27
2022-11-09T05:25:46.179Z,1.97
2022-11-09T05:30:49.263Z,2.50
2022-11-09T05:35:52.329Z,1.80
2022-11-09T05:40:56.662Z,2.03
2022-11-09T05:46:03.880Z,2.20
2022-11-09T05:51:12.668Z,1.87
2022-11-09T05:56:17.133Z,2.70
2022-11-09T06:01:20.337Z,2.47
2022-11-09T06:06:23.373Z,2.27
2022-11-09T06:11:29.905Z,2.10
2022-11-09T06:16:33.034Z,2.03
2022-11-09T06:21:36.159Z,2.13
2022-11-09T06:26:40.900Z,1.90
2022-11-09T06:31:44.007Z,2.17
2022-11-09T06:36:47.512Z,2.57
2022-11-09T06:41:51.940Z,3.13
2022-11-09T06:46:55.390Z,2.93
2022-11-09T06:51:58.448Z,2.57
2022-11-09T06:57:03.049Z,2.43
2022-11-09T07:02:06.502Z,2.00
2022-11-09T07:07:09.653Z,2.13
2022-11-09T07:12:14.242Z,2.50
2022-11-09T07:17:17.551Z,2.20
2022-11-09T07:22:21.002Z,2.00
2022-11-09T07:27:28.116Z,3.77
2022-11-09T07:33:07.000Z,2.40
2022-11-09T07:38:01.402Z,2.40
2022-11-09T07:43:07.809Z,2.43
2022-11-09T07:48:14.514Z,2.37
2022-11-09T07:53:18.200Z,2.77
2022-11-09T07:58:22.795Z,2.17
2022-11-09T08:03:26.193Z,2.70
2022-11-09T08:08:29.281Z,2.67
2022-11-09T08:13:34.205Z,2.83
2022-11-09T08:18:37.206Z,2.50
2022-11-09T08:23:40.585Z,3.17
2022-11-09T08:28:45.437Z,2.30
2022-11-09T08:33:48.654Z,2.73
2022-11-09T08:38:52.256Z,3.00
2022-11-09T08:43:56.687Z,2.80
2022-11-09T08:48:59.779Z,2.17
2022-11-09T08:54:02.946Z,2.63
2022-11-09T08:59:07.504Z,2.70
2022-11-09T09:04:10.813Z,2.57
2022-11-09T09:09:13.774Z,2.20
2022-11-09T09:14:18.488Z,3.10
2022-11-09T09:19:21.437Z,3.10
2022-11-09T09:24:24.792Z,2.30
2022-11-09T09:29:29.254Z,3.13
2022-11-09T09:34:32.522Z,2.23
2022-11-09T09:39:35.780Z,2.70
2022-11-09T09:44:44.575Z,2.30
2022-11-09T09:49:53.557Z,2.60
2022-11-09T09:55:02.341Z,2.00
2022-11-09T10:00:10.585Z,2.10
2022-11-09T10:05:18.175Z,2.10
2022-11-09T10:10:44.445Z,2.70
2022-11-09T10:15:54.386Z,2.10
2022-11-09T10:21:10.265Z,2.30
2022-11-09T10:26:19.984Z,2.20
2022-11-09T10:31:25.254Z,2.93
2022-11-09T10:36:33.114Z,2.03
2022-11-09T10:41:40.767Z,2.50
2022-11-09T10:47:09.270Z,2.40
2022-11-09T10:52:43.038Z,2.27
2022-11-09T10:58:22.759Z,2.53
2022-11-09T11:03:46.861Z,2.50
2022-11-09T11:09:17.708Z,2.30
2022-11-09T11:14:45.009Z,1.80
2022-11-09T11:20:30.083Z,2.27
2022-11-09T11:26:08.216Z,2.20
2022-11-09T11:31:30.177Z,2.60
2022-11-09T11:37:07.475Z,2.10
2022-11-09T11:43:03.076Z,2.53
2022-11-09T11:48:59.005Z,2.37
2022-11-09T11:54:32.656Z,2.20
2022-11-09T12:00:05.586Z,2.20
2022-11-09T12:05:55.190Z,2.27
2022-11-09T12:11:27.009Z,2.50
2022-11-09T12:16:54.450Z,2.03
2022-11-09T12:22:22.692Z,2.40
2022-11-09T12:28:06.216Z,2.03
2022-11-09T12:33:39.446Z,2.10
2022-11-09T12:39:11.665Z,1.70
2022-11-09T12:44:41.669Z,1.73
2022-11-09T12:50:03.684Z,1.60
2022-11-09T12:55:32.198Z,1.60
2022-11-09T13:00:57.996Z,1.20
2022-11-09T13:06:22.810Z,1.70
2022-11-09T13:11:47.452Z,1.63
2022-11-09T13:17:42.741Z,1.27
2022-11-09T13:23:47.700Z,1.60
2022-11-09T13:29:11.008Z,1.60
2022-11-09T13:34:43.838Z,1.40
2022-11-09T13:40:39.980Z,1.50
2022-11-09T13:46:05.641Z,1.47
2022-11-09T13:51:43.583Z,1.83
2022-11-09T13:57:08.128Z,1.73
2022-11-09T14:02:31.298Z,1.67
2022-11-09T14:07:55.553Z,1.30
2022-11-09T14:13:44.137Z,1.33
2022-11-09T14:19:28.015Z,1.57
2022-11-09T14:24:50.318Z,1.30
2022-11-09T14:30:20.077Z,1.80
2022-11-09T14:35:43.190Z,2.10
2022-11-09T14:41:05.265Z,1.80
2022-11-09T14:46:29.738Z,1.87
2022-11-09T14:51:53.069Z,1.30
2022-11-09T14:57:16.743Z,1.50
2022-11-09T15:02:39.414Z,1.27
2022-11-09T15:08:03.209Z,1.90
2022-11-09T15:13:32.665Z,1.70
2022-11-09T15:18:54.582Z,1.90
2022-11-09T15:24:19.231Z,1.60
2022-11-09T15:29:43.086Z,1.50
2022-11-09T15:35:16.990Z,1.70
2022-11-09T15:40:40.459Z,2.17
2022-11-09T15:46:02.486Z,1.77
2022-11-09T15:51:24.682Z,1.60
2022-11-09T15:56:48.354Z,1.60
2022-11-09T16:02:11.967Z,1.43
2022-11-09T16:07:33.751Z,1.30
2022-11-09T16:12:57.026Z,1.50
2022-11-09T16:18:25.482Z,1.70
2022-11-09T16:23:48.124Z,1.60
2022-11-09T16:29:11.384Z,1.50
2022-11-09T16:34:33.170Z,1.10
2022-11-09T16:39:55.321Z,1.90
2022-11-09T16:45:19.514Z,1.30
2022-11-09T16:50:41.553Z,1.87
2022-11-09T16:56:03.232Z,1.83
2022-11-09T17:01:26.668Z,2.23
2022-11-09T17:06:48.286Z,1.90
2022-11-09T17:12:09.781Z,1.40
2022-11-09T17:17:33.232Z,2.10
2022-11-09T17:22:55.398Z,1.60
2022-11-09T17:28:17.489Z,2.10
2022-11-09T17:33:40.966Z,2.37
2022-11-09T17:39:02.644Z,1.90
2022-11-09T17:44:24.230Z,2.13
2022-11-09T17:49:47.685Z,2.00
2022-11-09T17:55:09.889Z,2.13
2022-11-09T18:00:31.732Z,2.30
2022-11-09T18:05:55.074Z,2.47
2022-11-09T18:11:18.781Z,2.67
2022-11-09T18:16:40.521Z,2.63
2022-11-09T18:22:04.922Z,2.73
2022-11-09T18:27:30.546Z,2.80
2022-11-09T18:32:52.915Z,2.00
2022-11-09T18:38:20.017Z,3.00
2022-11-09T18:43:42.762Z,2.40
2022-11-09T18:49:08.929Z,2.50
2022-11-09T18:54:36.160Z,2.93
2022-11-09T18:59:57.968Z,2.67
2022-11-09T19:05:19.778Z,3.03
2022-11-09T19:10:42.826Z,2.60
2022-11-09T19:16:04.713Z,2.33
2022-11-09T19:21:37.885Z,2.40
2022-11-09T19:27:01.659Z,2.60
2022-11-09T19:32:23.661Z,2.13
2022-11-09T19:37:45.720Z,3.07
2022-11-09T19:43:08.413Z,3.43
2022-11-09T19:48:29.892Z,3.20
2022-11-09T19:53:52.915Z,2.93
2022-11-09T19:59:17.840Z,3.27
2022-11-09T20:04:40.131Z,3.23
2022-11-09T20:10:03.537Z,3.13
2022-11-09T20:15:26.713Z,3.30
2022-11-09T20:20:48.808Z,3.30
2022-11-09T20:26:12.079Z,3.77
2022-11-09T20:31:36.782Z,2.50
2022-11-09T20:36:58.255Z,2.83
2022-11-09T20:42:19.752Z,3.27
2022-11-09T20:48:05.037Z,2.67
2022-11-09T20:53:24.511Z,2.97
2022-11-09T20:58:47.389Z,3.30
2022-11-09T21:04:11.203Z,3.93
2022-11-09T21:09:33.182Z,3.37
2022-11-09T21:14:54.930Z,3.27
2022-11-09T21:20:19.112Z,2.70
2022-11-09T21:25:59.555Z,3.83
2022-11-09T21:31:21.845Z,3.30
2022-11-09T21:36:46.180Z,3.33
2022-11-09T21:42:08.256Z,3.23
2022-11-09T21:47:30.324Z,2.90
2022-11-09T21:52:53.103Z,3.23
2022-11-09T21:58:15.040Z,3.00
2022-11-09T22:03:36.966Z,3.47
2022-11-09T22:09:00.637Z,3.83
2022-11-09T22:14:40.026Z,3.53
2022-11-09T22:20:19.321Z,3.37
2022-11-09T22:25:47.805Z,3.93
2022-11-09T22:31:10.673Z,4.00
2022-11-09T22:36:32.384Z,3.57
2022-11-09T22:41:55.480Z,3.50
2022-11-09T22:47:17.075Z,4.13
2022-11-09T22:52:38.617Z,3.83
2022-11-09T22:58:02.167Z,4.03
2022-11-09T23:03:24.784Z,3.50
2022-11-09T23:08:46.999Z,3.87
2022-11-09T23:14:10.053Z,3.63
2022-11-09T23:19:32.101Z,3.57
2022-11-09T23:25:26.155Z,3.63
2022-11-09T23:30:49.566Z,4.53
2022-11-09T23:36:11.665Z,4.10
2022-11-09T23:41:33.953Z,4.20
2022-11-09T23:46:56.952Z,4.67
2022-11-09T23:52:18.809Z,3.53
2022-11-09T23:57:41.116Z,4.00
